sensor_id;sensor_type;location;lat;lon;timestamp;P1;durP1;ratioP1;P2;durP2;ratioP2
59306;SDS011;47983;53.016;-2.260;2022-11-20T00:01:31;14.18;;;5.90;;
59306;SDS011;47983;53.016;-2.260;2022-11-20T00:04:00;17.92;;;6.53;;
59306;SDS011;47983;53.016;-2.260;2022-11-20T00:06:28;17.13;;;5.32;;
59306;SDS011;47983;53.016;-2.260;2022-11-20T00:09:00;30.70;;;6.40;;
59306;SDS011;47983;53.016;-2.260;2022-11-20T00:11:29;13.82;;;6.15;;
59306;SDS011;47983;53.016;-2.260;2022-11-20T00:13:59;12.77;;;5.28;;
59306;SDS011;47983;53.016;-2.260;2022-11-20T00:16:29;21.38;;;6.97;;
59306;SDS011;47983;53.016;-2.260;2022-11-20T00:18:58;17.98;;;6.82;;
59306;SDS011;47983;53.016;-2.260;2022-11-20T00:21:27;14.93;;;7.78;;
59306;SDS011;47983;53.016;-2.260;2022-11-20T00:23:56;18.42;;;6.68;;
59306;SDS011;47983;53.016;-2.260;2022-11-20T00:26:24;12.98;;;5.85;;
59306;SDS011;47983;53.016;-2.260;2022-11-20T00:28:54;14.25;;;5.90;;
59306;SDS011;47983;53.016;-2.260;2022-11-20T00:31:24;12.38;;;5.38;;
59306;SDS011;47983;53.016;-2.260;2022-11-20T00:33:52;22.17;;;5.78;;
59306;SDS011;47983;53.016;-2.260;2022-11-20T00:36:21;10.75;;;6.43;;
59306;SDS011;47983;53.016;-2.260;2022-11-20T00:38:51;16.90;;;6.13;;
59306;SDS011;47983;53.016;-2.260;2022-11-20T00:41:20;16.65;;;6.13;;
59306;SDS011;47983;53.016;-2.260;2022-11-20T00:43:48;16.92;;;5.60;;
59306;SDS011;47983;53.016;-2.260;2022-11-20T00:46:18;14.18;;;4.70;;
59306;SDS011;47983;53.016;-2.260;2022-11-20T00:48:46;14.38;;;6.80;;
59306;SDS011;47983;53.016;-2.260;2022-11-20T00:51:16;19.27;;;6.32;;
59306;SDS011;47983;53.016;-2.260;2022-11-20T00:53:46;18.73;;;6.30;;
59306;SDS011;47983;53.016;-2.260;2022-11-20T00:56:15;14.60;;;5.68;;
59306;SDS011;47983;53.016;-2.260;2022-11-20T00:58:47;13.98;;;5.60;;
59306;SDS011;47983;53.016;-2.260;2022-11-20T01:01:22;13.95;;;5.22;;
59306;SDS011;47983;53.016;-2.260;2022-11-20T01:03:53;19.48;;;5.35;;
59306;SDS011;47983;53.016;-2.260;2022-11-20T01:06:26;10.88;;;4.30;;
59306;SDS011;47983;53.016;-2.260;2022-11-20T01:09:00;14.93;;;4.75;;
59306;SDS011;47983;53.016;-2.260;2022-11-20T01:11:33;7.82;;;3.97;;
59306;SDS011;47983;53.016;-2.260;2022-11-20T01:14:04;11.68;;;5.32;;
59306;SDS011;47983;53.016;-2.260;2022-11-20T01:16:34;18.10;;;6.18;;
59306;SDS011;47983;53.016;-2.260;2022-11-20T01:19:04;10.75;;;5.15;;
59306;SDS011;47983;53.016;-2.260;2022-11-20T01:21:35;17.88;;;4.80;;
59306;SDS011;47983;53.016;-2.260;2022-11-20T01:24:05;15.68;;;4.82;;
59306;SDS011;47983;53.016;-2.260;2022-11-20T01:26:36;19.73;;;5.55;;
59306;SDS011;47983;53.016;-2.260;2022-11-20T01:29:06;22.83;;;6.28;;
59306;SDS011;47983;53.016;-2.260;2022-11-20T01:31:36;10.48;;;4.93;;
59306;SDS011;47983;53.016;-2.260;2022-11-20T01:34:05;14.13;;;4.47;;
59306;SDS011;47983;53.016;-2.260;2022-11-20T01:36:35;16.08;;;4.43;;
59306;SDS011;47983;53.016;-2.260;2022-11-20T01:39:05;12.15;;;4.25;;
59306;SDS011;47983;53.016;-2.260;2022-11-20T01:41:43;14.95;;;5.00;;
59306;SDS011;47983;53.016;-2.260;2022-11-20T01:44:43;9.32;;;4.65;;
59306;SDS011;47983;53.016;-2.260;2022-11-20T01:47:14;9.25;;;3.97;;
59306;SDS011;47983;53.016;-2.260;2022-11-20T01:50:14;11.93;;;4.38;;
59306;SDS011;47983;53.016;-2.260;2022-11-20T01:55:27;11.55;;;3.25;;
59306;SDS011;47983;53.016;-2.260;2022-11-20T01:58:00;5.32;;;2.38;;
59306;SDS011;47983;53.016;-2.260;2022-11-20T02:00:29;6.93;;;2.35;;
59306;SDS011;47983;53.016;-2.260;2022-11-20T02:02:58;7.45;;;3.50;;
59306;SDS011;47983;53.016;-2.260;2022-11-20T02:05:32;7.00;;;2.17;;
59306;SDS011;47983;53.016;-2.260;2022-11-20T02:08:06;6.85;;;2.65;;
59306;SDS011;47983;53.016;-2.260;2022-11-20T02:10:34;9.05;;;2.58;;
59306;SDS011;47983;53.016;-2.260;2022-11-20T02:13:02;12.10;;;2.83;;
59306;SDS011;47983;53.016;-2.260;2022-11-20T02:15:50;13.75;;;3.03;;
59306;SDS011;47983;53.016;-2.260;2022-11-20T02:18:19;9.68;;;2.45;;
59306;SDS011;47983;53.016;-2.260;2022-11-20T02:20:49;7.50;;;2.92;;
59306;SDS011;47983;53.016;-2.260;2022-11-20T02:23:52;12.70;;;2.20;;
59306;SDS011;47983;53.016;-2.260;2022-11-20T02:26:31;12.90;;;2.85;;
59306;SDS011;47983;53.016;-2.260;2022-11-20T02:29:02;6.82;;;3.10;;
59306;SDS011;47983;53.016;-2.260;2022-11-20T02:31:48;6.93;;;3.05;;
59306;SDS011;47983;53.016;-2.260;2022-11-20T02:34:17;7.20;;;3.25;;
59306;SDS011;47983;53.016;-2.260;2022-11-20T02:36:45;12.15;;;3.03;;
59306;SDS011;47983;53.016;-2.260;2022-11-20T02:39:13;11.07;;;3.92;;
59306;SDS011;47983;53.016;-2.260;2022-11-20T02:41:44;11.05;;;3.17;;
59306;SDS011;47983;53.016;-2.260;2022-11-20T02:44:12;8.65;;;3.63;;
59306;SDS011;47983;53.016;-2.260;2022-11-20T02:46:43;7.57;;;3.47;;
59306;SDS011;47983;53.016;-2.260;2022-11-20T02:49:10;10.02;;;3.40;;
59306;SDS011;47983;53.016;-2.260;2022-11-20T02:51:38;8.60;;;3.67;;
59306;SDS011;47983;53.016;-2.260;2022-11-20T02:54:05;5.90;;;3.17;;
59306;SDS011;47983;53.016;-2.260;2022-11-20T02:56:33;17.63;;;3.88;;
59306;SDS011;47983;53.016;-2.260;2022-11-20T02:59:00;9.80;;;3.85;;
59306;SDS011;47983;53.016;-2.260;2022-11-20T03:01:28;10.32;;;3.60;;
59306;SDS011;47983;53.016;-2.260;2022-11-20T03:03:55;9.20;;;3.38;;
59306;SDS011;47983;53.016;-2.260;2022-11-20T03:06:23;9.05;;;3.08;;
59306;SDS011;47983;53.016;-2.260;2022-11-20T03:08:50;12.18;;;4.38;;
59306;SDS011;47983;53.016;-2.260;2022-11-20T03:11:18;8.40;;;3.67;;
59306;SDS011;47983;53.016;-2.260;2022-11-20T03:13:46;10.57;;;4.45;;
59306;SDS011;47983;53.016;-2.260;2022-11-20T03:16:20;8.98;;;3.72;;
59306;SDS011;47983;53.016;-2.260;2022-11-20T03:18:49;11.20;;;4.35;;
59306;SDS011;47983;53.016;-2.260;2022-11-20T03:21:18;8.32;;;3.85;;
59306;SDS011;47983;53.016;-2.260;2022-11-20T03:23:46;10.07;;;4.45;;
59306;SDS011;47983;53.016;-2.260;2022-11-20T03:26:15;10.02;;;4.85;;
59306;SDS011;47983;53.016;-2.260;2022-11-20T03:28:51;8.52;;;5.95;;
59306;SDS011;47983;53.016;-2.260;2022-11-20T03:31:24;12.60;;;4.97;;
59306;SDS011;47983;53.016;-2.260;2022-11-20T03:33:57;15.57;;;5.95;;
59306;SDS011;47983;53.016;-2.260;2022-11-20T03:36:26;15.43;;;4.95;;
59306;SDS011;47983;53.016;-2.260;2022-11-20T03:38:54;12.35;;;4.93;;
59306;SDS011;47983;53.016;-2.260;2022-11-20T03:41:26;11.30;;;5.95;;
59306;SDS011;47983;53.016;-2.260;2022-11-20T03:44:00;12.57;;;5.35;;
59306;SDS011;47983;53.016;-2.260;2022-11-20T03:46:30;8.38;;;4.60;;
59306;SDS011;47983;53.016;-2.260;2022-11-20T03:48:57;15.50;;;5.75;;
59306;SDS011;47983;53.016;-2.260;2022-11-20T03:51:26;10.70;;;5.45;;
59306;SDS011;47983;53.016;-2.260;2022-11-20T03:56:29;16.38;;;5.38;;
59306;SDS011;47983;53.016;-2.260;2022-11-20T03:58:58;10.02;;;5.40;;
59306;SDS011;47983;53.016;-2.260;2022-11-20T04:01:29;10.77;;;5.60;;
59306;SDS011;47983;53.016;-2.260;2022-11-20T04:03:59;9.95;;;4.72;;
59306;SDS011;47983;53.016;-2.260;2022-11-20T04:06:28;12.18;;;5.53;;
59306;SDS011;47983;53.016;-2.260;2022-11-20T04:08:58;10.68;;;5.97;;
59306;SDS011;47983;53.016;-2.260;2022-11-20T04:11:27;10.05;;;5.30;;
59306;SDS011;47983;53.016;-2.260;2022-11-20T04:14:00;10.30;;;5.25;;
59306;SDS011;47983;53.016;-2.260;2022-11-20T04:16:30;12.20;;;5.00;;
59306;SDS011;47983;53.016;-2.260;2022-11-20T04:19:03;7.28;;;4.18;;
59306;SDS011;47983;53.016;-2.260;2022-11-20T04:21:33;7.07;;;4.45;;
59306;SDS011;47983;53.016;-2.260;2022-11-20T04:24:00;8.40;;;5.07;;
59306;SDS011;47983;53.016;-2.260;2022-11-20T04:26:29;9.00;;;4.55;;
59306;SDS011;47983;53.016;-2.260;2022-11-20T04:28:57;6.88;;;4.30;;
59306;SDS011;47983;53.016;-2.260;2022-11-20T04:31:27;11.15;;;4.70;;
59306;SDS011;47983;53.016;-2.260;2022-11-20T04:33:58;8.57;;;4.80;;
59306;SDS011;47983;53.016;-2.260;2022-11-20T04:36:28;11.05;;;5.40;;
59306;SDS011;47983;53.016;-2.260;2022-11-20T04:38:57;8.27;;;4.47;;
59306;SDS011;47983;53.016;-2.260;2022-11-20T04:41:27;7.90;;;4.43;;
59306;SDS011;47983;53.016;-2.260;2022-11-20T04:43:57;8.43;;;4.28;;
59306;SDS011;47983;53.016;-2.260;2022-11-20T04:46:30;8.20;;;4.15;;
59306;SDS011;47983;53.016;-2.260;2022-11-20T04:48:59;10.80;;;4.55;;
59306;SDS011;47983;53.016;-2.260;2022-11-20T04:51:26;9.13;;;4.93;;
59306;SDS011;47983;53.016;-2.260;2022-11-20T04:53:54;9.93;;;4.78;;
59306;SDS011;47983;53.016;-2.260;2022-11-20T04:56:22;9.57;;;4.40;;
59306;SDS011;47983;53.016;-2.260;2022-11-20T04:58:50;8.27;;;4.70;;
59306;SDS011;47983;53.016;-2.260;2022-11-20T05:01:18;10.20;;;5.20;;
59306;SDS011;47983;53.016;-2.260;2022-11-20T05:03:48;6.70;;;4.68;;
59306;SDS011;47983;53.016;-2.260;2022-11-20T05:06:16;7.47;;;5.00;;
59306;SDS011;47983;53.016;-2.260;2022-11-20T05:08:46;11.57;;;5.53;;
59306;SDS011;47983;53.016;-2.260;2022-11-20T05:11:15;10.30;;;5.72;;
59306;SDS011;47983;53.016;-2.260;2022-11-20T05:13:44;12.38;;;5.10;;
59306;SDS011;47983;53.016;-2.260;2022-11-20T05:16:13;7.78;;;4.80;;
59306;SDS011;47983;53.016;-2.260;2022-11-20T05:18:43;9.60;;;4.93;;
59306;SDS011;47983;53.016;-2.260;2022-11-20T05:21:11;8.57;;;5.03;;
59306;SDS011;47983;53.016;-2.260;2022-11-20T05:23:39;12.60;;;5.32;;
59306;SDS011;47983;53.016;-2.260;2022-11-20T05:26:08;10.98;;;4.70;;
59306;SDS011;47983;53.016;-2.260;2022-11-20T05:28:48;9.18;;;4.97;;
59306;SDS011;47983;53.016;-2.260;2022-11-20T05:31:18;7.88;;;4.80;;
59306;SDS011;47983;53.016;-2.260;2022-11-20T05:33:53;10.45;;;5.25;;
59306;SDS011;47983;53.016;-2.260;2022-11-20T05:36:22;7.87;;;4.50;;
59306;SDS011;47983;53.016;-2.260;2022-11-20T05:38:50;11.18;;;4.88;;
59306;SDS011;47983;53.016;-2.260;2022-11-20T05:41:24;9.35;;;4.75;;
59306;SDS011;47983;53.016;-2.260;2022-11-20T05:43:52;10.60;;;4.70;;
59306;SDS011;47983;53.016;-2.260;2022-11-20T05:46:20;10.98;;;5.15;;
59306;SDS011;47983;53.016;-2.260;2022-11-20T05:48:55;10.88;;;5.60;;
59306;SDS011;47983;53.016;-2.260;2022-11-20T05:51:24;13.25;;;5.18;;
59306;SDS011;47983;53.016;-2.260;2022-11-20T05:53:52;7.35;;;4.40;;
59306;SDS011;47983;53.016;-2.260;2022-11-20T05:56:20;11.27;;;4.68;;
59306;SDS011;47983;53.016;-2.260;2022-11-20T05:58:48;18.90;;;5.57;;
59306;SDS011;47983;53.016;-2.260;2022-11-20T06:01:20;13.35;;;5.90;;
59306;SDS011;47983;53.016;-2.260;2022-11-20T06:03:50;14.63;;;6.32;;
59306;SDS011;47983;53.016;-2.260;2022-11-20T06:06:19;21.25;;;7.78;;
59306;SDS011;47983;53.016;-2.260;2022-11-20T06:08:47;13.75;;;7.63;;
59306;SDS011;47983;53.016;-2.260;2022-11-20T06:11:15;18.88;;;7.28;;
59306;SDS011;47983;53.016;-2.260;2022-11-20T06:13:44;13.57;;;6.90;;
59306;SDS011;47983;53.016;-2.260;2022-11-20T06:16:14;14.38;;;7.38;;
59306;SDS011;47983;53.016;-2.260;2022-11-20T06:18:43;14.32;;;7.30;;
59306;SDS011;47983;53.016;-2.260;2022-11-20T06:21:11;21.70;;;7.93;;
59306;SDS011;47983;53.016;-2.260;2022-11-20T06:23:44;18.25;;;7.50;;
59306;SDS011;47983;53.016;-2.260;2022-11-20T06:26:14;19.52;;;7.63;;
59306;SDS011;47983;53.016;-2.260;2022-11-20T06:28:49;16.17;;;7.95;;
59306;SDS011;47983;53.016;-2.260;2022-11-20T06:31:19;14.07;;;7.25;;
59306;SDS011;47983;53.016;-2.260;2022-11-20T06:33:48;19.73;;;8.38;;
59306;SDS011;47983;53.016;-2.260;2022-11-20T06:36:18;15.18;;;7.70;;
59306;SDS011;47983;53.016;-2.260;2022-11-20T06:38:47;23.33;;;8.98;;
59306;SDS011;47983;53.016;-2.260;2022-11-20T06:41:17;20.00;;;8.85;;
59306;SDS011;47983;53.016;-2.260;2022-11-20T06:43:46;14.30;;;6.60;;
59306;SDS011;47983;53.016;-2.260;2022-11-20T06:46:14;16.63;;;7.72;;
59306;SDS011;47983;53.016;-2.260;2022-11-20T06:48:47;20.15;;;7.50;;
59306;SDS011;47983;53.016;-2.260;2022-11-20T06:51:15;15.60;;;6.78;;
59306;SDS011;47983;53.016;-2.260;2022-11-20T06:53:46;13.63;;;6.60;;
59306;SDS011;47983;53.016;-2.260;2022-11-20T06:56:14;19.75;;;6.97;;
59306;SDS011;47983;53.016;-2.260;2022-11-20T06:58:42;18.05;;;6.07;;
59306;SDS011;47983;53.016;-2.260;2022-11-20T07:01:11;20.23;;;7.00;;
59306;SDS011;47983;53.016;-2.260;2022-11-20T07:03:40;19.30;;;6.57;;
59306;SDS011;47983;53.016;-2.260;2022-11-20T07:06:08;15.68;;;6.57;;
59306;SDS011;47983;53.016;-2.260;2022-11-20T07:08:36;20.65;;;7.32;;
59306;SDS011;47983;53.016;-2.260;2022-11-20T07:11:05;10.32;;;5.72;;
59306;SDS011;47983;53.016;-2.260;2022-11-20T07:13:33;13.98;;;7.07;;
59306;SDS011;47983;53.016;-2.260;2022-11-20T07:16:05;11.57;;;5.90;;
59306;SDS011;47983;53.016;-2.260;2022-11-20T07:18:34;13.95;;;7.07;;
59306;SDS011;47983;53.016;-2.260;2022-11-20T07:21:02;18.88;;;5.38;;
59306;SDS011;47983;53.016;-2.260;2022-11-20T07:26:06;16.52;;;5.50;;
59306;SDS011;47983;53.016;-2.260;2022-11-20T07:28:35;19.33;;;7.65;;
59306;SDS011;47983;53.016;-2.260;2022-11-20T07:31:03;21.42;;;7.88;;
59306;SDS011;47983;53.016;-2.260;2022-11-20T07:33:32;22.85;;;6.68;;
59306;SDS011;47983;53.016;-2.260;2022-11-20T07:36:00;18.75;;;7.75;;
59306;SDS011;47983;53.016;-2.260;2022-11-20T07:38:29;19.38;;;7.75;;
59306;SDS011;47983;53.016;-2.260;2022-11-20T07:40:57;15.03;;;6.97;;
59306;SDS011;47983;53.016;-2.260;2022-11-20T07:43:25;16.75;;;6.57;;
59306;SDS011;47983;53.016;-2.260;2022-11-20T07:45:56;18.70;;;6.53;;
59306;SDS011;47983;53.016;-2.260;2022-11-20T07:48:25;15.88;;;5.22;;
59306;SDS011;47983;53.016;-2.260;2022-11-20T07:50:53;13.73;;;5.60;;
59306;SDS011;47983;53.016;-2.260;2022-11-20T07:53:24;15.20;;;5.10;;
59306;SDS011;47983;53.016;-2.260;2022-11-20T07:55:52;14.35;;;6.40;;
59306;SDS011;47983;53.016;-2.260;2022-11-20T07:58:20;16.70;;;7.22;;
59306;SDS011;47983;53.016;-2.260;2022-11-20T08:00:48;15.70;;;6.97;;
59306;SDS011;47983;53.016;-2.260;2022-11-20T08:03:16;18.15;;;7.07;;
59306;SDS011;47983;53.016;-2.260;2022-11-20T08:05:50;22.17;;;6.15;;
59306;SDS011;47983;53.016;-2.260;2022-11-20T08:08:18;31.75;;;7.95;;
59306;SDS011;47983;53.016;-2.260;2022-11-20T08:10:46;20.20;;;6.70;;
59306;SDS011;47983;53.016;-2.260;2022-11-20T08:13:14;24.10;;;7.75;;
59306;SDS011;47983;53.016;-2.260;2022-11-20T08:16:00;26.75;;;7.22;;
59306;SDS011;47983;53.016;-2.260;2022-11-20T08:18:28;22.67;;;6.45;;
59306;SDS011;47983;53.016;-2.260;2022-11-20T08:21:02;26.73;;;6.80;;
59306;SDS011;47983;53.016;-2.260;2022-11-20T08:23:31;12.63;;;4.88;;
59306;SDS011;47983;53.016;-2.260;2022-11-20T08:25:59;19.58;;;5.13;;
59306;SDS011;47983;53.016;-2.260;2022-11-20T08:28:27;20.02;;;4.30;;
59306;SDS011;47983;53.016;-2.260;2022-11-20T08:30:58;28.77;;;4.88;;
59306;SDS011;47983;53.016;-2.260;2022-11-20T08:33:28;16.45;;;4.68;;
59306;SDS011;47983;53.016;-2.260;2022-11-20T08:36:00;19.30;;;4.00;;
59306;SDS011;47983;53.016;-2.260;2022-11-20T08:38:32;19.70;;;4.63;;
59306;SDS011;47983;53.016;-2.260;2022-11-20T08:41:00;16.95;;;3.67;;
59306;SDS011;47983;53.016;-2.260;2022-11-20T08:43:50;28.58;;;4.55;;
59306;SDS011;47983;53.016;-2.260;2022-11-20T08:46:19;20.10;;;3.17;;
59306;SDS011;47983;53.016;-2.260;2022-11-20T08:48:47;24.30;;;4.28;;
59306;SDS011;47983;53.016;-2.260;2022-11-20T08:51:15;23.17;;;3.03;;
59306;SDS011;47983;53.016;-2.260;2022-11-20T08:53:43;19.15;;;3.40;;
59306;SDS011;47983;53.016;-2.260;2022-11-20T08:56:14;17.58;;;3.10;;
59306;SDS011;47983;53.016;-2.260;2022-11-20T08:58:42;17.42;;;3.08;;
59306;SDS011;47983;53.016;-2.260;2022-11-20T09:01:29;19.67;;;3.53;;
59306;SDS011;47983;53.016;-2.260;2022-11-20T09:03:57;20.42;;;2.70;;
59306;SDS011;47983;53.016;-2.260;2022-11-20T09:06:26;10.43;;;2.90;;
59306;SDS011;47983;53.016;-2.260;2022-11-20T09:08:54;17.90;;;2.83;;
59306;SDS011;47983;53.016;-2.260;2022-11-20T09:11:22;17.73;;;2.78;;
59306;SDS011;47983;53.016;-2.260;2022-11-20T09:13:50;26.00;;;3.30;;
59306;SDS011;47983;53.016;-2.260;2022-11-20T09:16:17;13.45;;;2.67;;
59306;SDS011;47983;53.016;-2.260;2022-11-20T09:18:45;15.02;;;2.92;;
59306;SDS011;47983;53.016;-2.260;2022-11-20T09:21:28;14.43;;;2.78;;
59306;SDS011;47983;53.016;-2.260;2022-11-20T09:23:55;19.73;;;2.85;;
59306;SDS011;47983;53.016;-2.260;2022-11-20T09:26:23;17.50;;;2.85;;
59306;SDS011;47983;53.016;-2.260;2022-11-20T09:28:50;26.52;;;3.63;;
59306;SDS011;47983;53.016;-2.260;2022-11-20T09:31:24;17.95;;;2.15;;
59306;SDS011;47983;53.016;-2.260;2022-11-20T09:33:53;18.55;;;3.00;;
59306;SDS011;47983;53.016;-2.260;2022-11-20T09:36:20;28.90;;;2.97;;
59306;SDS011;47983;53.016;-2.260;2022-11-20T09:38:48;17.27;;;2.97;;
59306;SDS011;47983;53.016;-2.260;2022-11-20T09:52:57;22.70;;;3.53;;
59306;SDS011;47983;53.016;-2.260;2022-11-20T09:55:40;20.83;;;3.00;;
59306;SDS011;47983;53.016;-2.260;2022-11-20T09:58:28;19.98;;;2.78;;
59306;SDS011;47983;53.016;-2.260;2022-11-20T10:01:09;27.83;;;3.22;;
59306;SDS011;47983;53.016;-2.260;2022-11-20T10:06:31;17.77;;;3.22;;
59306;SDS011;47983;53.016;-2.260;2022-11-20T10:09:06;23.63;;;3.67;;
59306;SDS011;47983;53.016;-2.260;2022-11-20T10:19:49;33.63;;;3.85;;
59306;SDS011;47983;53.016;-2.260;2022-11-20T10:25:38;24.73;;;2.55;;
59306;SDS011;47983;53.016;-2.260;2022-11-20T10:30:56;22.35;;;2.92;;
59306;SDS011;47983;53.016;-2.260;2022-11-20T10:33:35;19.30;;;2.80;;
59306;SDS011;47983;53.016;-2.260;2022-11-20T10:36:27;20.88;;;3.10;;
59306;SDS011;47983;53.016;-2.260;2022-11-20T10:41:58;10.60;;;2.85;;
59306;SDS011;47983;53.016;-2.260;2022-11-20T10:44:28;16.35;;;2.33;;
59306;SDS011;47983;53.016;-2.260;2022-11-20T10:47:25;14.90;;;2.38;;
59306;SDS011;47983;53.016;-2.260;2022-11-20T10:50:01;14.60;;;3.67;;
59306;SDS011;47983;53.016;-2.260;2022-11-20T11:00:30;18.08;;;3.47;;
59306;SDS011;47983;53.016;-2.260;2022-11-20T11:02:58;13.85;;;2.20;;
59306;SDS011;47983;53.016;-2.260;2022-11-20T11:05:38;12.93;;;2.10;;
59306;SDS011;47983;53.016;-2.260;2022-11-20T11:08:14;17.33;;;3.00;;
59306;SDS011;47983;53.016;-2.260;2022-11-20T11:13:25;14.38;;;2.10;;
59306;SDS011;47983;53.016;-2.260;2022-11-20T11:15:55;20.88;;;3.00;;
59306;SDS011;47983;53.016;-2.260;2022-11-20T11:18:29;17.70;;;1.95;;
59306;SDS011;47983;53.016;-2.260;2022-11-20T11:20:59;10.68;;;2.45;;
59306;SDS011;47983;53.016;-2.260;2022-11-20T11:23:36;16.30;;;2.10;;
59306;SDS011;47983;53.016;-2.260;2022-11-20T11:26:17;17.15;;;1.73;;
59306;SDS011;47983;53.016;-2.260;2022-11-20T11:28:58;16.90;;;3.17;;
59306;SDS011;47983;53.016;-2.260;2022-11-20T11:31:31;17.55;;;2.85;;
59306;SDS011;47983;53.016;-2.260;2022-11-20T11:34:16;9.85;;;2.42;;
59306;SDS011;47983;53.016;-2.260;2022-11-20T11:36:57;13.07;;;1.92;;
59306;SDS011;47983;53.016;-2.260;2022-11-20T11:39:26;20.85;;;2.40;;
59306;SDS011;47983;53.016;-2.260;2022-11-20T11:42:05;16.42;;;2.15;;
59306;SDS011;47983;53.016;-2.260;2022-11-20T11:44:38;20.10;;;2.58;;
59306;SDS011;47983;53.016;-2.260;2022-11-20T11:47:37;15.57;;;2.25;;
59306;SDS011;47983;53.016;-2.260;2022-11-20T11:52:43;19.67;;;2.70;;
59306;SDS011;47983;53.016;-2.260;2022-11-20T12:04:28;9.30;;;1.92;;
59306;SDS011;47983;53.016;-2.260;2022-11-20T12:07:12;21.38;;;2.58;;
59306;SDS011;47983;53.016;-2.260;2022-11-20T12:10:24;12.93;;;1.77;;
59306;SDS011;47983;53.016;-2.260;2022-11-20T12:15:53;14.68;;;2.40;;
59306;SDS011;47983;53.016;-2.260;2022-11-20T12:18:22;18.95;;;2.17;;
59306;SDS011;47983;53.016;-2.260;2022-11-20T12:24:02;14.23;;;2.83;;
59306;SDS011;47983;53.016;-2.260;2022-11-20T12:43:26;11.63;;;2.25;;
59306;SDS011;47983;53.016;-2.260;2022-11-20T12:46:33;10.75;;;1.63;;
59306;SDS011;47983;53.016;-2.260;2022-11-20T13:05:31;18.33;;;2.80;;
59306;SDS011;47983;53.016;-2.260;2022-11-20T13:08:00;8.68;;;1.90;;
59306;SDS011;47983;53.016;-2.260;2022-11-20T13:10:37;18.88;;;1.83;;
59306;SDS011;47983;53.016;-2.260;2022-11-20T13:13:17;13.00;;;2.17;;
59306;SDS011;47983;53.016;-2.260;2022-11-20T13:15:58;12.00;;;1.85;;
59306;SDS011;47983;53.016;-2.260;2022-11-20T13:18:46;11.98;;;1.55;;
59306;SDS011;47983;53.016;-2.260;2022-11-20T13:21:18;11.88;;;1.70;;
59306;SDS011;47983;53.016;-2.260;2022-11-20T13:24:05;17.95;;;3.00;;
59306;SDS011;47983;53.016;-2.260;2022-11-20T13:26:34;24.25;;;2.35;;
59306;SDS011;47983;53.016;-2.260;2022-11-20T13:29:20;20.20;;;2.42;;
59306;SDS011;47983;53.016;-2.260;2022-11-20T13:31:47;22.25;;;1.92;;
59306;SDS011;47983;53.016;-2.260;2022-11-20T13:34:25;17.20;;;2.90;;
59306;SDS011;47983;53.016;-2.260;2022-11-20T13:36:55;11.55;;;2.33;;
59306;SDS011;47983;53.016;-2.260;2022-11-20T13:39:25;23.45;;;3.03;;
59306;SDS011;47983;53.016;-2.260;2022-11-20T13:41:58;15.93;;;2.40;;
59306;SDS011;47983;53.016;-2.260;2022-11-20T13:45:11;16.40;;;5.97;;
59306;SDS011;47983;53.016;-2.260;2022-11-20T13:47:25;12.20;;;2.17;;
59306;SDS011;47983;53.016;-2.260;2022-11-20T13:49:55;11.38;;;2.15;;
59306;SDS011;47983;53.016;-2.260;2022-11-20T13:57:47;14.98;;;2.30;;
59306;SDS011;47983;53.016;-2.260;2022-11-20T14:00:26;8.68;;;1.13;;
59306;SDS011;47983;53.016;-2.260;2022-11-20T14:02:59;12.93;;;1.65;;
59306;SDS011;47983;53.016;-2.260;2022-11-20T14:05:35;20.25;;;1.77;;
59306;SDS011;47983;53.016;-2.260;2022-11-20T14:08:06;15.13;;;2.05;;
59306;SDS011;47983;53.016;-2.260;2022-11-20T14:16:27;10.73;;;1.27;;
59306;SDS011;47983;53.016;-2.260;2022-11-20T14:18:57;8.18;;;0.98;;
59306;SDS011;47983;53.016;-2.260;2022-11-20T14:21:46;6.47;;;0.80;;
59306;SDS011;47983;53.016;-2.260;2022-11-20T14:24:23;3.53;;;1.70;;
59306;SDS011;47983;53.016;-2.260;2022-11-20T14:26:52;10.50;;;0.90;;
59306;SDS011;47983;53.016;-2.260;2022-11-20T14:29:22;5.95;;;0.65;;
59306;SDS011;47983;53.016;-2.260;2022-11-20T14:31:55;8.75;;;1.25;;
59306;SDS011;47983;53.016;-2.260;2022-11-20T14:34:25;6.55;;;0.75;;
59306;SDS011;47983;53.016;-2.260;2022-11-20T14:36:58;4.35;;;1.05;;
59306;SDS011;47983;53.016;-2.260;2022-11-20T14:39:36;6.82;;;0.85;;
59306;SDS011;47983;53.016;-2.260;2022-11-20T14:42:17;5.78;;;0.68;;
59306;SDS011;47983;53.016;-2.260;2022-11-20T14:44:56;6.00;;;0.77;;
59306;SDS011;47983;53.016;-2.260;2022-11-20T14:49:54;4.80;;;0.52;;
59306;SDS011;47983;53.016;-2.260;2022-11-20T14:52:24;2.50;;;0.63;;
59306;SDS011;47983;53.016;-2.260;2022-11-20T15:02:40;2.72;;;0.43;;
59306;SDS011;47983;53.016;-2.260;2022-11-20T15:05:09;3.88;;;0.50;;
59306;SDS011;47983;53.016;-2.260;2022-11-20T15:07:39;5.25;;;0.68;;
59306;SDS011;47983;53.016;-2.260;2022-11-20T15:10:18;1.75;;;0.85;;
59306;SDS011;47983;53.016;-2.260;2022-11-20T15:15:30;2.08;;;0.20;;
59306;SDS011;47983;53.016;-2.260;2022-11-20T15:18:12;3.60;;;0.57;;
59306;SDS011;47983;53.016;-2.260;2022-11-20T15:20:42;3.53;;;0.65;;
59306;SDS011;47983;53.016;-2.260;2022-11-20T15:23:14;2.17;;;0.75;;
59306;SDS011;47983;53.016;-2.260;2022-11-20T15:25:45;1.05;;;0.45;;
59306;SDS011;47983;53.016;-2.260;2022-11-20T15:28:21;4.63;;;0.57;;
59306;SDS011;47983;53.016;-2.260;2022-11-20T15:31:00;2.53;;;0.52;;
59306;SDS011;47983;53.016;-2.260;2022-11-20T15:33:30;2.97;;;0.77;;
59306;SDS011;47983;53.016;-2.260;2022-11-20T15:35:59;3.60;;;0.98;;
59306;SDS011;47983;53.016;-2.260;2022-11-20T15:38:27;2.38;;;0.70;;
59306;SDS011;47983;53.016;-2.260;2022-11-20T15:40:55;6.25;;;1.00;;
59306;SDS011;47983;53.016;-2.260;2022-11-20T15:43:22;3.15;;;1.30;;
59306;SDS011;47983;53.016;-2.260;2022-11-20T15:45:51;4.63;;;1.67;;
59306;SDS011;47983;53.016;-2.260;2022-11-20T15:48:44;5.68;;;1.83;;
59306;SDS011;47983;53.016;-2.260;2022-11-20T15:51:33;4.03;;;1.70;;
59306;SDS011;47983;53.016;-2.260;2022-11-20T15:54:09;7.45;;;2.08;;
59306;SDS011;47983;53.016;-2.260;2022-11-20T15:56:37;6.57;;;1.35;;
59306;SDS011;47983;53.016;-2.260;2022-11-20T15:59:04;3.25;;;0.80;;
59306;SDS011;47983;53.016;-2.260;2022-11-20T16:01:32;4.72;;;1.73;;
59306;SDS011;47983;53.016;-2.260;2022-11-20T16:04:00;3.92;;;1.17;;
59306;SDS011;47983;53.016;-2.260;2022-11-20T16:06:28;5.10;;;1.75;;
59306;SDS011;47983;53.016;-2.260;2022-11-20T16:08:58;6.53;;;2.53;;
59306;SDS011;47983;53.016;-2.260;2022-11-20T16:11:26;4.13;;;1.42;;
59306;SDS011;47983;53.016;-2.260;2022-11-20T16:13:54;8.07;;;2.67;;
59306;SDS011;47983;53.016;-2.260;2022-11-20T16:16:41;7.60;;;2.95;;
59306;SDS011;47983;53.016;-2.260;2022-11-20T16:19:11;8.32;;;3.08;;
59306;SDS011;47983;53.016;-2.260;2022-11-20T16:21:40;9.40;;;3.63;;
59306;SDS011;47983;53.016;-2.260;2022-11-20T16:24:09;4.50;;;2.27;;
59306;SDS011;47983;53.016;-2.260;2022-11-20T16:26:39;4.82;;;2.20;;
59306;SDS011;47983;53.016;-2.260;2022-11-20T16:29:07;7.25;;;2.70;;
59306;SDS011;47983;53.016;-2.260;2022-11-20T16:31:35;4.88;;;2.13;;
59306;SDS011;47983;53.016;-2.260;2022-11-20T16:34:04;8.73;;;3.83;;
59306;SDS011;47983;53.016;-2.260;2022-11-20T16:36:39;7.22;;;3.03;;
59306;SDS011;47983;53.016;-2.260;2022-11-20T16:39:09;14.00;;;3.20;;
59306;SDS011;47983;53.016;-2.260;2022-11-20T16:41:37;6.35;;;3.45;;
59306;SDS011;47983;53.016;-2.260;2022-11-20T16:44:08;6.82;;;2.85;;
59306;SDS011;47983;53.016;-2.260;2022-11-20T16:46:38;8.30;;;2.33;;
59306;SDS011;47983;53.016;-2.260;2022-11-20T16:49:10;5.97;;;1.70;;
59306;SDS011;47983;53.016;-2.260;2022-11-20T16:51:39;2.58;;;1.40;;
59306;SDS011;47983;53.016;-2.260;2022-11-20T16:54:09;4.45;;;1.33;;
59306;SDS011;47983;53.016;-2.260;2022-11-20T16:56:43;3.97;;;1.40;;
59306;SDS011;47983;53.016;-2.260;2022-11-20T17:01:41;3.22;;;1.58;;